createdAt,value
2024-01-25T00:01:53.804Z,62.00
2024-01-25T00:04:20.901Z,62.00
2024-01-25T00:06:48.083Z,62.00
2024-01-25T00:09:15.173Z,62.00
2024-01-25T00:11:44.341Z,62.00
2024-01-25T00:14:11.245Z,62.00
2024-01-25T00:16:43.014Z,62.00
2024-01-25T00:19:10.504Z,62.20
2024-01-25T00:21:43.746Z,62.30
2024-01-25T00:24:13.685Z,62.30
2024-01-25T00:26:40.713Z,62.10
2024-01-25T00:29:07.739Z,62.10
2024-01-25T00:31:34.659Z,62.00
2024-01-25T00:34:02.210Z,62.00
2024-01-25T00:36:29.594Z,62.00
2024-01-25T00:38:56.854Z,62.10
2024-01-25T00:41:24.911Z,62.20
2024-01-25T00:43:52.577Z,62.20
2024-01-25T00:46:20.021Z,62.30
2024-01-25T00:48:47.304Z,62.30
2024-01-25T00:51:24.467Z,62.40
2024-01-25T00:53:51.573Z,62.40
2024-01-25T00:56:18.652Z,62.30
2024-01-25T00:58:45.554Z,62.30
2024-01-25T01:01:12.918Z,62.30
2024-01-25T01:03:40.355Z,62.40
2024-01-25T01:06:07.929Z,62.40
2024-01-25T01:08:35.042Z,62.40
2024-01-25T01:11:01.789Z,62.30
2024-01-25T01:13:28.783Z,62.40
2024-01-25T01:15:55.645Z,62.40
2024-01-25T01:18:22.526Z,62.50
2024-01-25T01:20:49.543Z,62.50
2024-01-25T01:23:16.916Z,62.50
2024-01-25T01:25:43.746Z,62.50
2024-01-25T01:28:10.704Z,62.50
2024-01-25T01:30:37.484Z,62.60
2024-01-25T01:33:04.662Z,62.50
2024-01-25T01:35:31.681Z,62.50
2024-01-25T01:37:58.839Z,62.50
2024-01-25T01:40:25.777Z,62.50
2024-01-25T01:42:52.784Z,62.50
2024-01-25T01:45:19.716Z,62.50
2024-01-25T01:47:46.998Z,62.60
2024-01-25T01:50:14.722Z,62.70
2024-01-25T01:52:42.279Z,62.70
2024-01-25T01:55:09.781Z,62.80
2024-01-25T01:57:38.316Z,62.80
2024-01-25T02:00:09.785Z,62.80
2024-01-25T02:02:37.174Z,62.80
2024-01-25T02:05:04.190Z,62.80
2024-01-25T02:07:32.128Z,62.80
2024-01-25T02:09:59.117Z,62.70
2024-01-25T02:12:26.123Z,62.60
2024-01-25T02:14:52.953Z,62.50
2024-01-25T02:17:19.786Z,62.50
2024-01-25T02:19:46.838Z,62.40
2024-01-25T02:22:16.256Z,62.40
2024-01-25T02:24:43.351Z,62.30
2024-01-25T02:27:10.556Z,62.30
2024-01-25T02:29:38.156Z,62.20
2024-01-25T02:32:05.304Z,62.10
2024-01-25T02:34:32.119Z,62.10
2024-01-25T02:36:59.157Z,62.20
2024-01-25T02:39:25.932Z,62.20
2024-01-25T02:41:52.747Z,62.20
2024-01-25T02:44:19.619Z,62.20
2024-01-25T02:46:47.558Z,62.20
2024-01-25T02:49:14.603Z,62.10
2024-01-25T02:51:41.850Z,62.10
2024-01-25T02:54:08.741Z,62.20
2024-01-25T02:56:36.574Z,62.20
2024-01-25T02:59:03.494Z,62.20
2024-01-25T03:01:42.158Z,62.20
2024-01-25T03:04:09.800Z,62.30
2024-01-25T03:06:37.045Z,62.30
2024-01-25T03:09:05.781Z,62.30
2024-01-25T03:11:32.753Z,62.30
2024-01-25T03:14:00.138Z,62.30
2024-01-25T03:16:27.106Z,62.20
2024-01-25T03:18:54.060Z,62.30
2024-01-25T03:21:20.955Z,62.30
2024-01-25T03:23:47.799Z,62.30
2024-01-25T03:26:14.668Z,62.40
2024-01-25T03:28:41.571Z,62.50
2024-01-25T03:31:08.774Z,62.60
2024-01-25T03:33:35.943Z,62.60
2024-01-25T03:36:06.794Z,62.80
2024-01-25T03:38:33.790Z,62.90
2024-01-25T03:41:00.670Z,63.00
2024-01-25T03:43:33.657Z,63.10
2024-01-25T03:46:05.978Z,63.00
2024-01-25T03:48:33.404Z,63.00
2024-01-25T03:51:00.313Z,63.00
2024-01-25T03:53:27.160Z,63.00
2024-01-25T03:55:54.295Z,62.90
2024-01-25T03:58:21.400Z,62.90
2024-01-25T04:00:48.842Z,62.90
2024-01-25T04:03:16.161Z,62.80
2024-01-25T04:05:43.141Z,62.80
2024-01-25T04:08:10.071Z,62.80
2024-01-25T04:10:36.960Z,62.80
2024-01-25T04:13:05.989Z,62.80
2024-01-25T04:15:33.000Z,62.80
2024-01-25T04:18:00.150Z,62.80
2024-01-25T04:20:27.281Z,62.90
2024-01-25T04:22:54.243Z,63.00
2024-01-25T04:25:21.317Z,63.10
2024-01-25T04:27:48.397Z,63.20
2024-01-25T04:30:15.334Z,63.20
2024-01-25T04:32:42.259Z,63.20
2024-01-25T04:35:10.718Z,63.10
2024-01-25T04:37:37.718Z,63.10
2024-01-25T04:40:06.440Z,63.20
2024-01-25T04:42:36.430Z,63.20
2024-01-25T04:45:03.579Z,63.20
2024-01-25T04:47:30.433Z,63.30
2024-01-25T04:49:57.461Z,63.30
2024-01-25T04:52:24.534Z,63.40
2024-01-25T04:54:51.535Z,63.50
2024-01-25T04:57:18.337Z,63.50
2024-01-25T04:59:45.176Z,63.40
2024-01-25T05:02:12.059Z,63.40
2024-01-25T05:04:39.111Z,63.30
2024-01-25T05:07:06.204Z,63.20
2024-01-25T05:09:33.560Z,63.20
2024-01-25T05:12:03.222Z,63.30
2024-01-25T05:14:30.156Z,63.40
2024-01-25T05:16:56.981Z,63.40
2024-01-25T05:19:23.910Z,63.50
2024-01-25T05:21:50.721Z,63.50
2024-01-25T05:24:17.880Z,63.60
2024-01-25T05:26:44.761Z,63.70
2024-01-25T05:29:11.601Z,63.70
2024-01-25T05:31:38.773Z,63.80
2024-01-25T05:34:05.788Z,63.80
2024-01-25T05:36:32.687Z,63.80
2024-01-25T05:38:59.500Z,63.80
2024-01-25T05:41:26.304Z,63.90
2024-01-25T05:43:53.176Z,64.00
2024-01-25T05:46:20.104Z,64.00
2024-01-25T05:48:47.071Z,64.00
2024-01-25T05:51:15.283Z,63.90
2024-01-25T05:53:42.175Z,64.00
2024-01-25T05:56:09.045Z,64.00
2024-01-25T05:58:36.160Z,64.10
2024-01-25T06:01:03.940Z,64.10
2024-01-25T06:03:31.233Z,64.20
2024-01-25T06:05:58.313Z,64.20
2024-01-25T06:08:25.363Z,64.40
2024-01-25T06:10:52.268Z,64.40
2024-01-25T06:13:19.616Z,64.40
2024-01-25T06:15:46.525Z,64.50
2024-01-25T06:18:13.424Z,64.50
2024-01-25T06:20:40.306Z,64.50
2024-01-25T06:23:07.291Z,64.70
2024-01-25T06:25:35.764Z,64.80
2024-01-25T06:28:03.311Z,64.90
2024-01-25T06:30:30.138Z,65.00
2024-01-25T06:32:57.362Z,65.00
2024-01-25T06:35:24.403Z,65.10
2024-01-25T06:37:51.257Z,65.10
2024-01-25T06:40:19.126Z,65.20
2024-01-25T06:42:46.422Z,65.30
2024-01-25T06:45:13.429Z,65.40
2024-01-25T06:47:40.300Z,65.50
2024-01-25T06:50:08.128Z,65.70
2024-01-25T06:52:35.308Z,65.80
2024-01-25T06:55:02.981Z,66.00
2024-01-25T06:57:29.921Z,66.20
2024-01-25T06:59:56.748Z,66.40
2024-01-25T07:02:24.061Z,66.40
2024-01-25T07:04:54.284Z,66.40
2024-01-25T07:07:21.726Z,66.40
2024-01-25T07:09:48.690Z,66.20
2024-01-25T07:12:15.696Z,66.20
2024-01-25T07:14:42.761Z,66.30
2024-01-25T07:17:09.583Z,66.50
2024-01-25T07:19:36.550Z,66.60
2024-01-25T07:22:03.467Z,66.70
2024-01-25T07:24:30.786Z,66.70
2024-01-25T07:26:57.570Z,66.80
2024-01-25T07:29:24.459Z,66.80
2024-01-25T07:31:51.498Z,66.80
2024-01-25T07:34:18.871Z,66.80
2024-01-25T07:36:45.860Z,66.90
2024-01-25T07:39:13.159Z,66.90
2024-01-25T07:41:40.043Z,66.80
2024-01-25T07:44:07.276Z,66.80
2024-01-25T07:46:34.400Z,66.80
2024-01-25T07:49:01.481Z,66.80
2024-01-25T07:51:29.832Z,66.70
2024-01-25T07:53:57.322Z,66.70
2024-01-25T07:56:24.447Z,66.70
2024-01-25T07:58:52.458Z,66.70
2024-01-25T08:01:23.092Z,66.60
2024-01-25T08:03:50.065Z,66.50
2024-01-25T08:06:17.162Z,66.40
2024-01-25T08:08:44.160Z,66.40
2024-01-25T08:11:11.646Z,66.40
2024-01-25T08:13:38.368Z,66.40
2024-01-25T08:16:05.679Z,66.20
2024-01-25T08:18:32.637Z,66.10
2024-01-25T08:21:00.007Z,66.00
2024-01-25T08:23:27.059Z,65.90
2024-01-25T08:25:53.904Z,66.10
2024-01-25T08:28:21.320Z,66.10
2024-01-25T08:30:48.587Z,65.80
2024-01-25T08:33:16.068Z,65.60
2024-01-25T08:35:43.564Z,65.50
2024-01-25T08:38:10.603Z,65.40
2024-01-25T08:40:37.659Z,65.30
2024-01-25T08:43:06.186Z,65.20
2024-01-25T08:45:33.418Z,65.10
2024-01-25T08:48:01.367Z,65.00
2024-01-25T08:50:28.891Z,64.80
2024-01-25T08:52:56.147Z,64.70
2024-01-25T08:55:25.227Z,64.50
2024-01-25T08:57:52.624Z,64.40
2024-01-25T09:00:19.899Z,64.20
2024-01-25T09:02:47.122Z,64.10
2024-01-25T09:05:14.129Z,64.00
2024-01-25T09:07:41.499Z,63.90
2024-01-25T09:10:09.647Z,63.80
2024-01-25T09:12:37.348Z,63.60
2024-01-25T09:15:10.127Z,63.50
2024-01-25T09:17:40.643Z,63.30
2024-01-25T09:20:11.405Z,63.10
2024-01-25T09:22:38.870Z,63.00
2024-01-25T09:25:08.605Z,62.90
2024-01-25T09:27:38.008Z,62.80
2024-01-25T09:30:06.718Z,62.70
2024-01-25T09:32:33.566Z,62.60
2024-01-25T09:35:03.152Z,62.60
2024-01-25T09:37:33.441Z,62.50
2024-01-25T09:40:03.963Z,62.50
2024-01-25T09:42:31.313Z,62.40
2024-01-25T09:44:59.035Z,62.30
2024-01-25T09:47:25.896Z,62.30
2024-01-25T09:49:53.258Z,62.20
2024-01-25T09:52:27.689Z,62.30
2024-01-25T09:54:56.486Z,62.00
2024-01-25T09:57:29.994Z,61.90
2024-01-25T10:03:36.315Z,61.50
2024-01-25T10:06:06.226Z,61.60
2024-01-25T10:08:33.382Z,61.60
2024-01-25T10:11:00.448Z,61.60
2024-01-25T10:13:49.780Z,61.30
2024-01-25T10:16:18.148Z,61.00
2024-01-25T10:18:47.983Z,60.80
2024-01-25T10:21:16.906Z,60.60
2024-01-25T10:23:49.731Z,60.40
2024-01-25T10:26:18.490Z,60.20
2024-01-25T10:28:56.690Z,60.30
2024-01-25T10:31:29.793Z,59.40
2024-01-25T10:33:58.270Z,59.30
2024-01-25T10:36:39.416Z,58.90
2024-01-25T10:39:25.379Z,58.90
2024-01-25T10:41:53.956Z,58.80
2024-01-25T10:44:24.258Z,58.60
2024-01-25T10:46:51.620Z,58.50
2024-01-25T10:49:22.755Z,58.40
2024-01-25T10:52:00.286Z,58.20
2024-01-25T10:54:33.947Z,58.00
2024-01-25T10:57:13.557Z,57.70
2024-01-25T10:59:40.641Z,56.70
2024-01-25T11:02:10.449Z,57.30
2024-01-25T11:04:38.455Z,57.40
2024-01-25T11:07:16.959Z,57.10
2024-01-25T11:09:47.374Z,56.60
2024-01-25T11:12:15.436Z,56.40
2024-01-25T11:14:42.353Z,56.10
2024-01-25T11:17:24.865Z,56.00
2024-01-25T11:19:52.618Z,55.30
2024-01-25T11:22:21.090Z,55.60
2024-01-25T11:24:50.058Z,55.20
2024-01-25T11:27:17.984Z,55.10
2024-01-25T11:29:44.815Z,55.00
2024-01-25T11:32:13.369Z,54.90
2024-01-25T11:34:40.570Z,54.80
2024-01-25T11:37:07.878Z,54.70
2024-01-25T11:39:42.125Z,54.30
2024-01-25T11:42:11.836Z,54.20
2024-01-25T11:44:39.693Z,54.40
2024-01-25T11:47:09.335Z,54.30
2024-01-25T11:49:37.349Z,53.90
2024-01-25T11:52:05.615Z,53.90
2024-01-25T11:54:34.219Z,53.60
2024-01-25T11:57:03.390Z,53.60
2024-01-25T11:59:30.428Z,53.60
2024-01-25T12:02:15.715Z,53.50
2024-01-25T12:05:09.754Z,53.30
2024-01-25T12:07:38.326Z,52.90
2024-01-25T12:11:18.543Z,53.10
2024-01-25T12:13:54.491Z,52.60
2024-01-25T12:16:54.187Z,52.80
2024-01-25T12:19:35.935Z,52.60
2024-01-25T12:22:48.792Z,52.30
2024-01-25T12:25:34.275Z,51.80
2024-01-25T12:28:08.517Z,51.60
2024-01-25T12:30:44.992Z,51.50
2024-01-25T12:43:22.763Z,51.70
2024-01-25T12:45:50.103Z,51.90
2024-01-25T12:48:23.937Z,51.70
2024-01-25T12:50:58.258Z,51.80
2024-01-25T12:53:26.131Z,51.80
2024-01-25T12:55:53.262Z,51.90
2024-01-25T12:58:20.559Z,52.00
2024-01-25T13:00:47.825Z,51.80
2024-01-25T13:03:19.046Z,51.90
2024-01-25T13:05:46.327Z,52.00
2024-01-25T13:08:13.289Z,51.80
2024-01-25T13:10:40.154Z,51.80
2024-01-25T13:13:07.083Z,51.80
2024-01-25T13:15:34.263Z,52.00
2024-01-25T13:18:02.419Z,52.10
2024-01-25T13:20:29.553Z,52.10
2024-01-25T13:22:56.542Z,52.10
2024-01-25T13:25:23.560Z,52.00
2024-01-25T13:27:50.470Z,52.00
2024-01-25T13:30:17.800Z,51.90
2024-01-25T13:32:44.789Z,52.00
2024-01-25T13:35:11.943Z,52.00
2024-01-25T13:37:39.901Z,52.10
2024-01-25T13:40:07.307Z,52.20
2024-01-25T13:42:34.108Z,52.20
2024-01-25T13:45:01.094Z,52.20
2024-01-25T13:47:27.817Z,52.20
2024-01-25T13:49:54.625Z,52.50
2024-01-25T13:52:21.655Z,52.50
2024-01-25T13:54:52.203Z,52.70
2024-01-25T13:57:21.844Z,52.70
2024-01-25T13:59:48.791Z,52.70
2024-01-25T14:02:15.500Z,52.90
2024-01-25T14:04:42.482Z,53.00
2024-01-25T14:07:09.940Z,53.00
2024-01-25T14:09:39.065Z,53.00
2024-01-25T14:12:06.636Z,53.00
2024-01-25T14:14:33.640Z,53.00
2024-01-25T14:17:00.785Z,53.00
2024-01-25T14:19:27.983Z,53.00
2024-01-25T14:22:04.986Z,53.10
2024-01-25T14:24:41.785Z,53.20
2024-01-25T14:27:08.616Z,53.30
2024-01-25T14:29:35.808Z,53.50
2024-01-25T14:32:03.883Z,53.60
2024-01-25T14:34:31.320Z,53.60
2024-01-25T14:36:58.450Z,53.60
2024-01-25T14:39:25.364Z,53.60
2024-01-25T14:41:52.207Z,53.60
2024-01-25T14:44:22.645Z,53.70
2024-01-25T14:46:55.591Z,53.70
2024-01-25T14:49:35.194Z,53.80
2024-01-25T14:52:05.228Z,53.60
2024-01-25T14:54:32.317Z,53.70
2024-01-25T14:56:59.608Z,53.70
2024-01-25T14:59:26.708Z,53.80
2024-01-25T15:02:00.084Z,54.00
2024-01-25T15:04:30.956Z,54.10
2024-01-25T15:06:58.094Z,54.10
2024-01-25T15:09:25.341Z,54.20
2024-01-25T15:11:52.232Z,54.20
2024-01-25T15:14:19.556Z,54.20
2024-01-25T15:16:51.512Z,54.20
2024-01-25T15:20:11.261Z,54.20
2024-01-25T15:22:39.343Z,54.30
2024-01-25T15:25:09.070Z,54.70
2024-01-25T15:27:36.009Z,54.80
2024-01-25T15:30:03.444Z,54.80
2024-01-25T15:32:30.462Z,54.80
2024-01-25T15:34:57.613Z,54.70
2024-01-25T15:37:24.643Z,54.70
2024-01-25T15:39:51.570Z,54.80
2024-01-25T15:42:21.295Z,54.90
2024-01-25T15:44:48.459Z,55.00
2024-01-25T15:47:15.382Z,55.20
2024-01-25T15:49:42.046Z,55.30
2024-01-25T15:55:00.422Z,55.40
2024-01-25T15:55:24.922Z,55.60
2024-01-25T15:57:52.514Z,55.60
2024-01-25T16:00:47.971Z,55.70
2024-01-25T16:05:56.849Z,55.80
2024-01-25T16:08:24.133Z,56.00
2024-01-25T16:10:50.825Z,56.20
2024-01-25T16:13:17.621Z,56.30
2024-01-25T16:15:44.282Z,56.40
2024-01-25T16:18:11.042Z,56.50
2024-01-25T16:20:37.841Z,56.60
2024-01-25T16:23:04.547Z,56.70
2024-01-25T16:25:31.507Z,56.90
2024-01-25T16:27:59.534Z,57.00
2024-01-25T16:30:26.299Z,57.00
2024-01-25T16:32:53.041Z,57.10
2024-01-25T16:35:19.723Z,57.20
2024-01-25T16:37:46.711Z,57.40
2024-01-25T16:40:13.359Z,57.50
2024-01-25T16:42:40.016Z,57.60
2024-01-25T16:45:07.159Z,57.70
2024-01-25T16:47:33.952Z,57.80
2024-01-25T16:50:00.803Z,58.00
2024-01-25T16:52:27.554Z,58.10
2024-01-25T16:54:54.359Z,58.10
2024-01-25T16:57:21.037Z,58.10
2024-01-25T16:59:47.686Z,58.30
2024-01-25T17:02:14.349Z,58.40
2024-01-25T17:04:41.194Z,58.50
2024-01-25T17:07:07.960Z,58.90
2024-01-25T17:09:34.715Z,58.90
2024-01-25T17:12:01.411Z,58.90
2024-01-25T17:14:28.055Z,58.90
2024-01-25T17:16:54.650Z,58.90
2024-01-25T17:19:21.910Z,58.80
2024-01-25T17:21:48.598Z,58.90
2024-01-25T17:24:16.693Z,58.90
2024-01-25T17:26:44.044Z,59.00
2024-01-25T17:29:10.691Z,59.10
2024-01-25T17:31:37.315Z,59.20
2024-01-25T17:34:04.164Z,59.30
2024-01-25T17:36:30.890Z,59.40
2024-01-25T17:38:57.592Z,59.50
2024-01-25T17:41:24.229Z,59.60
2024-01-25T17:43:50.960Z,59.60
2024-01-25T17:46:17.957Z,59.70
2024-01-25T17:48:46.034Z,59.80
2024-01-25T17:51:16.937Z,59.90
2024-01-25T17:53:43.664Z,60.00
2024-01-25T17:56:10.338Z,60.10
2024-01-25T17:58:36.952Z,60.20
2024-01-25T18:01:04.449Z,60.30
2024-01-25T18:03:31.120Z,60.40
2024-01-25T18:05:57.730Z,60.50
2024-01-25T18:08:24.320Z,60.50
2024-01-25T18:10:51.802Z,60.60
2024-01-25T18:13:18.415Z,60.70
2024-01-25T18:15:45.024Z,60.70
2024-01-25T18:18:11.753Z,60.90
2024-01-25T18:20:38.487Z,61.00
2024-01-25T18:23:05.122Z,61.00
2024-01-25T18:25:31.887Z,61.10
2024-01-25T18:28:00.504Z,61.10
2024-01-25T18:30:27.250Z,61.20
2024-01-25T18:32:53.885Z,61.20
2024-01-25T18:35:20.575Z,61.30
2024-01-25T18:37:47.172Z,61.30
2024-01-25T18:40:13.942Z,61.40
2024-01-25T18:42:40.568Z,61.50
2024-01-25T18:45:07.528Z,61.50
2024-01-25T18:47:34.154Z,61.60
2024-01-25T18:50:02.000Z,61.70
2024-01-25T18:52:28.791Z,61.70
2024-01-25T18:54:55.752Z,61.80
2024-01-25T18:57:22.776Z,61.90
2024-01-25T18:59:49.468Z,62.00
2024-01-25T19:02:16.323Z,61.90
2024-01-25T19:04:43.320Z,62.00
2024-01-25T19:07:10.471Z,62.10
2024-01-25T19:09:38.755Z,62.20
2024-01-25T19:12:05.752Z,62.20
2024-01-25T19:14:32.580Z,62.30
2024-01-25T19:16:59.598Z,62.30
2024-01-25T19:19:26.286Z,62.40
2024-01-25T19:21:53.081Z,62.50
2024-01-25T19:24:21.923Z,62.50
2024-01-25T19:26:48.586Z,62.60
2024-01-25T19:29:15.319Z,62.70
2024-01-25T19:31:42.065Z,62.80
2024-01-25T19:34:09.753Z,62.90
2024-01-25T19:36:36.574Z,62.90
2024-01-25T19:39:03.316Z,63.00
2024-01-25T19:41:30.037Z,63.10
2024-01-25T19:43:56.675Z,63.20
2024-01-25T19:46:23.298Z,63.30
2024-01-25T19:48:50.035Z,63.40
2024-01-25T19:51:16.787Z,63.30
2024-01-25T19:53:43.428Z,63.30
2024-01-25T19:56:10.055Z,63.30
2024-01-25T19:58:37.731Z,63.30
2024-01-25T20:01:04.837Z,63.50
2024-01-25T20:03:31.868Z,63.60
2024-01-25T20:05:58.690Z,63.80
2024-01-25T20:08:25.855Z,63.60
2024-01-25T20:10:52.448Z,63.60
2024-01-25T20:13:19.210Z,63.80
2024-01-25T20:15:46.093Z,64.00
2024-01-25T20:18:12.944Z,64.20
2024-01-25T20:20:46.187Z,64.30
2024-01-25T20:23:16.035Z,64.40
2024-01-25T20:25:42.822Z,64.50
2024-01-25T20:28:10.223Z,64.70
2024-01-25T20:30:39.707Z,64.80
2024-01-25T20:33:06.880Z,64.90
2024-01-25T20:35:33.647Z,64.90
2024-01-25T20:38:00.508Z,65.00
2024-01-25T20:40:27.196Z,65.00
2024-01-25T20:42:53.891Z,65.10
2024-01-25T20:45:22.790Z,65.10
2024-01-25T20:47:50.477Z,65.10
2024-01-25T20:50:22.919Z,65.20
2024-01-25T20:52:56.776Z,65.20
2024-01-25T20:55:23.504Z,65.30
2024-01-25T20:57:52.823Z,65.50
2024-01-25T21:00:21.061Z,65.60
2024-01-25T21:02:48.478Z,65.70
2024-01-25T21:05:15.822Z,65.70
2024-01-25T21:07:42.879Z,65.70
2024-01-25T21:10:10.053Z,65.80
2024-01-25T21:12:37.492Z,65.70
2024-01-25T21:15:04.977Z,65.70
2024-01-25T21:17:31.632Z,65.70
2024-01-25T21:19:58.405Z,65.80
2024-01-25T21:22:25.101Z,65.90
2024-01-25T21:24:54.231Z,66.10
2024-01-25T21:27:20.967Z,66.20
2024-01-25T21:29:47.572Z,66.30
2024-01-25T21:32:14.363Z,66.30
2024-01-25T21:34:41.127Z,66.40
2024-01-25T21:37:07.805Z,66.50
2024-01-25T21:39:34.489Z,66.50
2024-01-25T21:42:01.154Z,66.60
2024-01-25T21:44:27.823Z,66.80
2024-01-25T21:46:54.491Z,67.10
2024-01-25T21:49:21.534Z,67.20
2024-01-25T21:51:48.296Z,67.30
2024-01-25T21:54:15.320Z,67.20
2024-01-25T21:56:42.227Z,67.20
2024-01-25T21:59:09.048Z,67.30
2024-01-25T22:01:35.981Z,67.40
2024-01-25T22:04:02.821Z,67.50
2024-01-25T22:06:29.677Z,67.50
2024-01-25T22:08:56.581Z,67.50
2024-01-25T22:11:23.208Z,67.60
2024-01-25T22:13:54.648Z,67.70
2024-01-25T22:16:24.319Z,67.90
2024-01-25T22:18:51.089Z,68.00
2024-01-25T22:21:17.792Z,68.00
2024-01-25T22:23:44.868Z,68.20
2024-01-25T22:26:11.712Z,68.30
2024-01-25T22:28:38.545Z,68.20
2024-01-25T22:31:08.934Z,68.20
2024-01-25T22:33:39.174Z,68.40
2024-01-25T22:36:06.630Z,68.60
2024-01-25T22:38:33.459Z,68.70
2024-01-25T22:41:00.334Z,68.80
2024-01-25T22:43:28.965Z,68.90
2024-01-25T22:45:55.854Z,69.00
2024-01-25T22:48:22.609Z,69.00
2024-01-25T22:50:49.922Z,69.10
2024-01-25T22:53:16.631Z,69.10
2024-01-25T22:55:43.430Z,69.30
2024-01-25T22:58:10.301Z,69.30
2024-01-25T23:00:38.403Z,69.40
2024-01-25T23:03:06.671Z,69.60
2024-01-25T23:05:33.660Z,69.70
2024-01-25T23:08:00.544Z,69.90
2024-01-25T23:10:27.523Z,70.00
2024-01-25T23:12:54.560Z,70.20
2024-01-25T23:15:22.115Z,70.40
2024-01-25T23:17:49.143Z,70.60
2024-01-25T23:20:15.951Z,70.60
2024-01-25T23:22:43.625Z,70.80
2024-01-25T23:25:10.371Z,70.90
2024-01-25T23:27:38.539Z,70.90
2024-01-25T23:30:06.063Z,70.90
2024-01-25T23:32:32.705Z,70.90
2024-01-25T23:34:59.386Z,71.10
2024-01-25T23:37:26.068Z,71.30
2024-01-25T23:39:54.013Z,71.50
2024-01-25T23:42:21.146Z,71.60
2024-01-25T23:44:47.931Z,71.70
2024-01-25T23:47:14.568Z,71.50
2024-01-25T23:49:41.827Z,71.50
2024-01-25T23:52:08.658Z,71.60
2024-01-25T23:54:35.402Z,71.50
2024-01-25T23:57:02.368Z,71.50
2024-01-25T23:59:29.240Z,71.60
